Weather Data

Pearl Creek Farm: 8878 N Farm Road 75, Walnut Grove MO 65770

<== Previous Day (Friday 01 Jun 2018) | Next Day (Sunday 03 Jun 2018) ==>

Summary Precipitation Data For Saturday 02 June 2018

ElementValueUnits
Precipitation0"
NotesAny precipitation for this day was included with a multiple-day report on 03 June 2018.
SourcePearl Creek Farm

Summary Temperature Data For Saturday 02 June 2018

ElementValueUnits
High Temperature87 oF
Low Temperature68 oF
Average Temperature78 oF
High Humidity91 %
Low Humidity65 %
Average Humidity77 %
SourceSpringfield-Branson National Airport (SGF)

Detail Temperature Data For Saturday 02 June 2018

Date / TimeTemp (F)RH (%)Dew Pt (F)Report Date / TimeSource
2018-06-02 04:52:00 75 90 72.0 2019-02-02 11:24:24.260017 Springfield-Branson National Airport (SGF)
2018-06-02 05:52:00 76 88 72.0 2019-02-02 11:24:24.260017 Springfield-Branson National Airport (SGF)
2018-06-02 13:52:00 86 65 73.0 2019-02-02 11:24:24.260017 Springfield-Branson National Airport (SGF)
2018-06-02 00:52:00 78 82 72.0 2019-02-02 11:24:24.260017 Springfield-Branson National Airport (SGF)
2018-06-02 01:52:00 77 88 73.0 2019-02-02 11:24:24.260017 Springfield-Branson National Airport (SGF)
2018-06-02 02:52:00 76 91 73.0 2019-02-02 11:24:24.260017 Springfield-Branson National Airport (SGF)
2018-06-02 03:52:00 76 91 73.0 2019-02-02 11:24:24.260017 Springfield-Branson National Airport (SGF)
2018-06-02 06:52:00 78 82 72.0 2019-02-02 11:24:24.260017 Springfield-Branson National Airport (SGF)
2018-06-02 07:52:00 80 79 73.0 2019-02-02 11:24:24.260017 Springfield-Branson National Airport (SGF)
2018-06-02 08:52:00 82 74 73.0 2019-02-02 11:24:24.260017 Springfield-Branson National Airport (SGF)
2018-06-02 09:52:00 83 70 72.0 2019-02-02 11:24:24.260017 Springfield-Branson National Airport (SGF)
2018-06-02 10:52:00 85 68 73.0 2019-02-02 11:24:24.260017 Springfield-Branson National Airport (SGF)
2018-06-02 11:52:00 86 67 74.0 2019-02-02 11:24:24.260017 Springfield-Branson National Airport (SGF)
2018-06-02 12:52:00 86 65 73.0 2019-02-02 11:24:24.260017 Springfield-Branson National Airport (SGF)
2018-06-02 14:52:00 87 65 74.0 2019-02-02 11:24:24.260017 Springfield-Branson National Airport (SGF)
2018-06-02 15:52:00 80 74 71.0 2019-02-02 11:24:24.260017 Springfield-Branson National Airport (SGF)
2018-06-02 16:52:00 80 69 69.0 2019-02-02 11:24:24.260017 Springfield-Branson National Airport (SGF)
2018-06-02 17:52:00 78 69 67.0 2019-02-02 11:24:24.260017 Springfield-Branson National Airport (SGF)
2018-06-02 18:52:00 76 69 65.0 2019-02-02 11:24:24.260017 Springfield-Branson National Airport (SGF)
2018-06-02 19:52:00 72 76 64.0 2019-02-02 11:24:24.260017 Springfield-Branson National Airport (SGF)
2018-06-02 20:52:00 71 79 64.0 2019-02-02 11:24:24.260017 Springfield-Branson National Airport (SGF)
2018-06-02 21:52:00 69 84 64.0 2019-02-02 11:24:24.260017 Springfield-Branson National Airport (SGF)
2018-06-02 22:52:00 68 84 63.0 2019-02-02 11:24:24.260017 Springfield-Branson National Airport (SGF)
2018-06-02 23:52:00 68 78 61.0 2019-02-02 11:24:24.260017 Springfield-Branson National Airport (SGF)

A total of 24 rows are displayed.